Grande Portogallo — IBZW — position and weather

sailwx.info

Track history (hours):
 
Tides and Currents Weather Stations Pressure Air Temp Water Temp Dewpoint Dewpoint Depression Visibility Wind Speed Wind Dir Waves Ship Positions

Grande Portogallo

Last reported at 2014-Nov-28 09:29 UTC. Time now 2014-Nov-28 09:40 UTC.
Position N 37°57' W 009°53'.

Length 176 m; draft 8.3 m.

Type: Cargo ship. MMSI: 247065500.

Date/timePositionNaut miles runAvg speedWind from/ knotsBaromVisibWave heightAir tempDewpointWater temp
2014-Nov-28 09:29N 37°57' W 009°53'  
2014-Nov-25 17:30N 50°31' E 000°05'1617.3
2014-Nov-25 16:33N 50°36' E 000°30'1616.3
2014-Nov-25 15:33N 50°45' E 000°51'1615.1
2014-Nov-25 14:31N 50°55' E 001°10'1313.2
2014-Nov-25 13:33N 51°03' E 001°25'1313.4
2014-Nov-25 12:34N 51°12' E 001°42'1515.3
2014-Nov-25 11:34N 51°25' E 001°54'1817.5
2014-Nov-25 10:33N 51°39' E 002°12'5617.1
2014-Nov-25 07:17N 52°20' E 003°13'1115.2
2014-Nov-25 06:33N 52°26' E 003°28'1514.7
2014-Nov-25 05:33N 52°30' E 003°51'1514.6
2014-Nov-25 04:34N 52°31' E 004°15'1313.2
2014-Nov-25 03:34N 52°28' E 004°36'3 2.8
2014-Nov-25 02:34N 52°27' E 004°40'4 4.2
2014-Nov-25 01:34N 52°25' E 004°46'0 0.0
2014-Nov-25 00:34N 52°25' E 004°46'0 0.0
2014-Nov-24 23:33N 52°25' E 004°46'0 0.0
2014-Nov-24 22:33N 52°25' E 004°46'0 0.0
2014-Nov-24 21:33N 52°25' E 004°46'0 0.0
2014-Nov-24 20:33N 52°25' E 004°46'0 0.0
2014-Nov-24 19:34N 52°25' E 004°46'0 0.0
2014-Nov-24 18:34N 52°25' E 004°46'0 0.0
2014-Nov-24 17:33N 52°25' E 004°46'0 0.0
2014-Nov-24 16:33N 52°25' E 004°46'0 0.0
2014-Nov-24 15:33N 52°25' E 004°46'0 0.0
2014-Nov-24 14:33N 52°25' E 004°46'0 0.0
2014-Nov-24 13:33N 52°25' E 004°46'0 0.0
2014-Nov-24 12:31N 52°25' E 004°46'0 0.0
2014-Nov-24 11:31N 52°25' E 004°46'0 0.0
2014-Nov-24 10:31N 52°25' E 004°46'0 0.0
2014-Nov-24 09:31N 52°25' E 004°46'0 0.0
2014-Nov-24 08:31N 52°25' E 004°46'0 0.0
2014-Nov-24 07:31N 52°25' E 004°46'0 0.0
2014-Nov-24 06:31N 52°25' E 004°46'0 0.0
2014-Nov-24 05:31N 52°25' E 004°46'0 0.0
2014-Nov-24 04:31N 52°25' E 004°46'0 0.0
2014-Nov-24 03:31N 52°25' E 004°46'0 0.0
2014-Nov-24 02:31N 52°25' E 004°46'0 0.0
2014-Nov-24 01:31N 52°25' E 004°46'0 0.0
2014-Nov-24 00:31N 52°25' E 004°46'0 0.0
2014-Nov-23 23:31N 52°25' E 004°46'0 0.0
2014-Nov-23 22:31N 52°25' E 004°46'0 0.0
2014-Nov-23 21:31N 52°25' E 004°46'0 0.0
2014-Nov-23 20:31N 52°25' E 004°46'0 0.0
2014-Nov-23 19:31N 52°25' E 004°46'0 0.0
2014-Nov-23 18:31N 52°25' E 004°46'0 0.0
2014-Nov-23 17:31N 52°25' E 004°46'0 0.0
2014-Nov-23 16:31N 52°25' E 004°46'0 0.0
2014-Nov-23 15:31N 52°25' E 004°46'5 5.2
2014-Nov-23 14:33N 52°28' E 004°39'4 3.6
2014-Nov-23 13:33N 52°28' E 004°34'9 9.4
2014-Nov-23 12:33N 52°28' E 004°18'9 9.3
2014-Nov-23 11:33N 52°34' E 004°06'1313.1
2014-Nov-23 10:33N 52°46' E 003°57'1614.7
2014-Nov-23 09:26N 53°01' E 004°08'1415.4
2014-Nov-23 08:33N 53°10' E 004°25'1514.8
2014-Nov-23 07:33N 53°24' E 004°34'1313.4
2014-Nov-23 06:33N 53°32' E 004°52'1413.7
2014-Nov-23 05:33N 53°36' E 005°14'1414.0
2014-Nov-23 04:34N 53°41' E 005°36'1515.3
2014-Nov-23 03:33N 53°45' E 006°01'5015.9
2014-Nov-23 00:23N 53°59' E 007°23'1315.1
2014-Nov-22 23:34N 54°02' E 007°44'1514.8
2014-Nov-22 22:34N 54°01' E 008°09'1414.3
2014-Nov-22 21:33N 53°58' E 008°33'1312.6
2014-Nov-22 20:34N 53°50' E 008°50'1514.8
2014-Nov-22 19:34N 53°53' E 009°15'1717.3
2014-Nov-22 18:33N 53°39' E 009°31'1414.3
2014-Nov-22 17:33N 53°33' E 009°53'4 4.1
2014-Nov-22 16:34N 53°32' E 009°60'0 0.0
2014-Nov-22 15:31N 53°32' E 009°60'0 0.0
2014-Nov-22 14:34N 53°32' E 009°60'0 0.0
2014-Nov-22 13:31N 53°32' E 009°60'0 0.0
2014-Nov-22 12:34N 53°32' E 009°60'0 0.0
2014-Nov-22 11:31N 53°32' E 009°60'0 0.0
2014-Nov-22 10:31N 53°32' E 009°60'0 0.0
2014-Nov-22 09:31N 53°32' E 009°60'0 0.0
2014-Nov-22 08:34N 53°32' E 009°60'0 0.0
2014-Nov-22 07:34N 53°32' E 009°60'0 0.0
2014-Nov-22 06:31N 53°32' E 009°60'0 0.0
2014-Nov-22 05:34N 53°32' E 009°60'0 0.0
2014-Nov-22 04:34N 53°32' E 009°60'0 0.0
2014-Nov-22 03:31N 53°32' E 009°60'0 0.0
2014-Nov-22 02:34N 53°32' E 009°60'2 1.5
2014-Nov-22 01:33N 53°33' E 009°58'7 7.4
2014-Nov-22 00:33N 53°34' E 009°45'1211.8
2014-Nov-21 23:33N 53°41' E 009°30'1615.7
2014-Nov-21 22:34N 53°53' E 009°12'1514.7
2014-Nov-21 21:34N 53°50' E 008°47'1717.2
2014-Nov-21 20:33N 53°59' E 008°22'1615.6
2014-Nov-21 19:33N 53°58' E 007°56'3717.7
2014-Nov-21 17:27N 53°50' E 006°54'2216.8
2014-Nov-21 16:07N 53°44' E 006°18'916.5
2014-Nov-21 15:33N 53°41' E 006°03'1616.1
2014-Nov-21 14:33N 53°36' E 005°37'1615.8
2014-Nov-21 13:33N 53°30' E 005°12'1615.5
2014-Nov-21 12:33N 53°25' E 004°48'1615.7
2014-Nov-21 11:32N 53°11' E 004°33'1616.4
2014-Nov-21 10:33N 52°57' E 004°20'1815.9
2014-Nov-21 09:27N 52°43' E 004°04'1616.0
2014-Nov-21 08:28N 52°32' E 003°46'1415.4
2014-Nov-21 07:33N 52°20' E 003°34'19 9.0
2014-Nov-21 05:26N 52°01' E 003°24'1416.2
2014-Nov-21 04:33N 51°48' E 003°18'1313.0
2014-Nov-21 03:33N 51°35' E 003°24'1312.7
2014-Nov-21 02:33N 51°26' E 003°38'1212.4
2014-Nov-21 01:34N 51°24' E 003°57'10 9.5
2014-Nov-21 00:34N 51°24' E 004°12'8 8.3
2014-Nov-20 23:33N 51°16' E 004°17'0 0.4
2014-Nov-20 22:33N 51°16' E 004°16'2 2.2
2014-Nov-20 21:32N 51°16' E 004°13'0 0.0
2014-Nov-20 20:29N 51°16' E 004°13'0 0.0
2014-Nov-20 19:32N 51°16' E 004°13'0 0.0
2014-Nov-20 18:26N 51°16' E 004°13'0 0.0
2014-Nov-20 17:26N 51°16' E 004°13'0 0.0
2014-Nov-20 16:32N 51°16' E 004°13'0 0.0
2014-Nov-20 15:20N 51°16' E 004°13'0 0.0
2014-Nov-20 14:32N 51°16' E 004°13'0 0.0
2014-Nov-20 13:32N 51°16' E 004°13'0 0.0
2014-Nov-20 12:32N 51°16' E 004°13'0 0.0
2014-Nov-20 11:32N 51°16' E 004°13'0 0.0
2014-Nov-20 10:29N 51°16' E 004°13'0 0.0
2014-Nov-20 09:29N 51°16' E 004°13'0 0.0
2014-Nov-20 08:32N 51°16' E 004°13'0 0.0
2014-Nov-20 07:26N 51°16' E 004°13'0 0.0
2014-Nov-20 06:32N 51°16' E 004°13'0 0.0
2014-Nov-20 05:29N 51°16' E 004°13'0 0.0
2014-Nov-20 04:32N 51°16' E 004°13'2 2.6
2014-Nov-20 03:34N 51°16' E 004°17'2 2.2
2014-Nov-20 02:34N 51°17' E 004°19'8 8.1
2014-Nov-20 01:34N 51°24' E 004°11'9 9.2
2014-Nov-20 00:34N 51°23' E 003°57'1111.1
2014-Nov-19 23:33N 51°26' E 003°40'1212.3
2014-Nov-19 22:33N 51°24' E 003°20'1817.6
2014-Nov-19 21:33N 51°22' E 002°52'1514.9
2014-Nov-19 20:31N 51°21' E 002°28'1717.9
2014-Nov-19 19:34N 51°13' E 002°03'1717.1
2014-Nov-19 18:34N 51°03' E 001°41'3616.6
2014-Nov-19 16:25N 50°35' E 001°06'1516.9
2014-Nov-19 15:31N 50°30' E 000°44'1717.2
2014-Nov-19 14:32N 50°24' E 000°19'3815.9
2014-Nov-19 12:08N 50°34' W 000°39'916.1
2014-Nov-19 11:33N 50°38' W 000°52'1212.3
2014-Nov-19 10:33N 50°45' W 001°08'10 9.8
2014-Nov-19 09:33N 50°51' W 001°21'4 1.8
2014-Nov-19 07:19N 50°54' W 001°25'0 0.0
2014-Nov-19 04:04N 50°54' W 001°25'0 0.0
2014-Nov-19 03:28N 50°54' W 001°25'0 0.0
2014-Nov-19 02:25N 50°54' W 001°25'0 0.0
2014-Nov-19 00:28N 50°54' W 001°25'0 0.0
2014-Nov-18 23:31N 50°54' W 001°25'0 0.0
2014-Nov-18 21:25N 50°54' W 001°25'0 0.0
2014-Nov-18 17:31N 50°54' W 001°25'0 0.0
2014-Nov-18 15:16N 50°54' W 001°25'0 0.0
2014-Nov-18 14:07N 50°54' W 001°25'0 0.0
2014-Nov-18 13:31N 50°54' W 001°25'0 0.0
2014-Nov-18 12:31N 50°54' W 001°25'0 0.0
2014-Nov-18 11:25N 50°54' W 001°25'  
Track history (hours):
 
Tides and Currents Weather Stations Pressure Air Temp Water Temp Dewpoint Dewpoint Depression Visibility Wind Speed Wind Dir Waves Ship Positions

Grande Portogallo

Last reported at 2014-Nov-28 09:29 UTC. Time now 2014-Nov-28 09:40 UTC.
Position N 37°57' W 009°53'.

Length 176 m; draft 8.3 m.

Type: Cargo ship. MMSI: 247065500.

Date/timePositionNaut miles runAvg speedWind from/ knotsBaromVisibWave heightAir tempDewpointWater temp
2014-Nov-28 09:29N 37°57' W 009°53'  
2014-Nov-25 17:30N 50°31' E 000°05'1617.3
2014-Nov-25 16:33N 50°36' E 000°30'1616.3
2014-Nov-25 15:33N 50°45' E 000°51'1615.1
2014-Nov-25 14:31N 50°55' E 001°10'1313.2
2014-Nov-25 13:33N 51°03' E 001°25'1313.4
2014-Nov-25 12:34N 51°12' E 001°42'1515.3
2014-Nov-25 11:34N 51°25' E 001°54'1817.5
2014-Nov-25 10:33N 51°39' E 002°12'5617.1
2014-Nov-25 07:17N 52°20' E 003°13'1115.2
2014-Nov-25 06:33N 52°26' E 003°28'1514.7
2014-Nov-25 05:33N 52°30' E 003°51'1514.6
2014-Nov-25 04:34N 52°31' E 004°15'1313.2
2014-Nov-25 03:34N 52°28' E 004°36'3 2.8
2014-Nov-25 02:34N 52°27' E 004°40'4 4.2
2014-Nov-25 01:34N 52°25' E 004°46'0 0.0
2014-Nov-25 00:34N 52°25' E 004°46'0 0.0
2014-Nov-24 23:33N 52°25' E 004°46'0 0.0
2014-Nov-24 22:33N 52°25' E 004°46'0 0.0
2014-Nov-24 21:33N 52°25' E 004°46'0 0.0
2014-Nov-24 20:33N 52°25' E 004°46'0 0.0
2014-Nov-24 19:34N 52°25' E 004°46'0 0.0
2014-Nov-24 18:34N 52°25' E 004°46'0 0.0
2014-Nov-24 17:33N 52°25' E 004°46'0 0.0
2014-Nov-24 16:33N 52°25' E 004°46'0 0.0
2014-Nov-24 15:33N 52°25' E 004°46'0 0.0
2014-Nov-24 14:33N 52°25' E 004°46'0 0.0
2014-Nov-24 13:33N 52°25' E 004°46'0 0.0
2014-Nov-24 12:31N 52°25' E 004°46'0 0.0
2014-Nov-24 11:31N 52°25' E 004°46'0 0.0
2014-Nov-24 10:31N 52°25' E 004°46'0 0.0
2014-Nov-24 09:31N 52°25' E 004°46'0 0.0
2014-Nov-24 08:31N 52°25' E 004°46'0 0.0
2014-Nov-24 07:31N 52°25' E 004°46'0 0.0
2014-Nov-24 06:31N 52°25' E 004°46'0 0.0
2014-Nov-24 05:31N 52°25' E 004°46'0 0.0
2014-Nov-24 04:31N 52°25' E 004°46'0 0.0
2014-Nov-24 03:31N 52°25' E 004°46'0 0.0
2014-Nov-24 02:31N 52°25' E 004°46'0 0.0
2014-Nov-24 01:31N 52°25' E 004°46'0 0.0
2014-Nov-24 00:31N 52°25' E 004°46'0 0.0
2014-Nov-23 23:31N 52°25' E 004°46'0 0.0
2014-Nov-23 22:31N 52°25' E 004°46'0 0.0
2014-Nov-23 21:31N 52°25' E 004°46'0 0.0
2014-Nov-23 20:31N 52°25' E 004°46'0 0.0
2014-Nov-23 19:31N 52°25' E 004°46'0 0.0
2014-Nov-23 18:31N 52°25' E 004°46'0 0.0
2014-Nov-23 17:31N 52°25' E 004°46'0 0.0
2014-Nov-23 16:31N 52°25' E 004°46'0 0.0
2014-Nov-23 15:31N 52°25' E 004°46'5 5.2
2014-Nov-23 14:33N 52°28' E 004°39'4 3.6
2014-Nov-23 13:33N 52°28' E 004°34'9 9.4
2014-Nov-23 12:33N 52°28' E 004°18'9 9.3
2014-Nov-23 11:33N 52°34' E 004°06'1313.1
2014-Nov-23 10:33N 52°46' E 003°57'1614.7
2014-Nov-23 09:26N 53°01' E 004°08'1415.4
2014-Nov-23 08:33N 53°10' E 004°25'1514.8
2014-Nov-23 07:33N 53°24' E 004°34'1313.4
2014-Nov-23 06:33N 53°32' E 004°52'1413.7
2014-Nov-23 05:33N 53°36' E 005°14'1414.0
2014-Nov-23 04:34N 53°41' E 005°36'1515.3
2014-Nov-23 03:33N 53°45' E 006°01'5015.9
2014-Nov-23 00:23N 53°59' E 007°23'1315.1
2014-Nov-22 23:34N 54°02' E 007°44'1514.8
2014-Nov-22 22:34N 54°01' E 008°09'1414.3
2014-Nov-22 21:33N 53°58' E 008°33'1312.6
2014-Nov-22 20:34N 53°50' E 008°50'1514.8
2014-Nov-22 19:34N 53°53' E 009°15'1717.3
2014-Nov-22 18:33N 53°39' E 009°31'1414.3
2014-Nov-22 17:33N 53°33' E 009°53'4 4.1
2014-Nov-22 16:34N 53°32' E 009°60'0 0.0
2014-Nov-22 15:31N 53°32' E 009°60'0 0.0
2014-Nov-22 14:34N 53°32' E 009°60'0 0.0
2014-Nov-22 13:31N 53°32' E 009°60'0 0.0
2014-Nov-22 12:34N 53°32' E 009°60'0 0.0
2014-Nov-22 11:31N 53°32' E 009°60'0 0.0
2014-Nov-22 10:31N 53°32' E 009°60'0 0.0
2014-Nov-22 09:31N 53°32' E 009°60'0 0.0
2014-Nov-22 08:34N 53°32' E 009°60'0 0.0
2014-Nov-22 07:34N 53°32' E 009°60'0 0.0
2014-Nov-22 06:31N 53°32' E 009°60'0 0.0
2014-Nov-22 05:34N 53°32' E 009°60'0 0.0
2014-Nov-22 04:34N 53°32' E 009°60'0 0.0
2014-Nov-22 03:31N 53°32' E 009°60'0 0.0
2014-Nov-22 02:34N 53°32' E 009°60'2 1.5
2014-Nov-22 01:33N 53°33' E 009°58'7 7.4
2014-Nov-22 00:33N 53°34' E 009°45'1211.8
2014-Nov-21 23:33N 53°41' E 009°30'1615.7
2014-Nov-21 22:34N 53°53' E 009°12'1514.7
2014-Nov-21 21:34N 53°50' E 008°47'1717.2
2014-Nov-21 20:33N 53°59' E 008°22'1615.6
2014-Nov-21 19:33N 53°58' E 007°56'3717.7
2014-Nov-21 17:27N 53°50' E 006°54'2216.8
2014-Nov-21 16:07N 53°44' E 006°18'916.5
2014-Nov-21 15:33N 53°41' E 006°03'1616.1
2014-Nov-21 14:33N 53°36' E 005°37'1615.8
2014-Nov-21 13:33N 53°30' E 005°12'1615.5
2014-Nov-21 12:33N 53°25' E 004°48'1615.7
2014-Nov-21 11:32N 53°11' E 004°33'1616.4
2014-Nov-21 10:33N 52°57' E 004°20'1815.9
2014-Nov-21 09:27N 52°43' E 004°04'1616.0
2014-Nov-21 08:28N 52°32' E 003°46'1415.4
2014-Nov-21 07:33N 52°20' E 003°34'19 9.0
2014-Nov-21 05:26N 52°01' E 003°24'1416.2
2014-Nov-21 04:33N 51°48' E 003°18'1313.0
2014-Nov-21 03:33N 51°35' E 003°24'1312.7
2014-Nov-21 02:33N 51°26' E 003°38'1212.4
2014-Nov-21 01:34N 51°24' E 003°57'10 9.5
2014-Nov-21 00:34N 51°24' E 004°12'8 8.3
2014-Nov-20 23:33N 51°16' E 004°17'0 0.4
2014-Nov-20 22:33N 51°16' E 004°16'2 2.2
2014-Nov-20 21:32N 51°16' E 004°13'0 0.0
2014-Nov-20 20:29N 51°16' E 004°13'0 0.0
2014-Nov-20 19:32N 51°16' E 004°13'0 0.0
2014-Nov-20 18:26N 51°16' E 004°13'0 0.0
2014-Nov-20 17:26N 51°16' E 004°13'0 0.0
2014-Nov-20 16:32N 51°16' E 004°13'0 0.0
2014-Nov-20 15:20N 51°16' E 004°13'0 0.0
2014-Nov-20 14:32N 51°16' E 004°13'0 0.0
2014-Nov-20 13:32N 51°16' E 004°13'0 0.0
2014-Nov-20 12:32N 51°16' E 004°13'0 0.0
2014-Nov-20 11:32N 51°16' E 004°13'0 0.0
2014-Nov-20 10:29N 51°16' E 004°13'0 0.0
2014-Nov-20 09:29N 51°16' E 004°13'0 0.0
2014-Nov-20 08:32N 51°16' E 004°13'0 0.0
2014-Nov-20 07:26N 51°16' E 004°13'0 0.0
2014-Nov-20 06:32N 51°16' E 004°13'0 0.0
2014-Nov-20 05:29N 51°16' E 004°13'0 0.0
2014-Nov-20 04:32N 51°16' E 004°13'2 2.6
2014-Nov-20 03:34N 51°16' E 004°17'2 2.2
2014-Nov-20 02:34N 51°17' E 004°19'8 8.1
2014-Nov-20 01:34N 51°24' E 004°11'9 9.2
2014-Nov-20 00:34N 51°23' E 003°57'1111.1
2014-Nov-19 23:33N 51°26' E 003°40'1212.3
2014-Nov-19 22:33N 51°24' E 003°20'1817.6
2014-Nov-19 21:33N 51°22' E 002°52'1514.9
2014-Nov-19 20:31N 51°21' E 002°28'1717.9
2014-Nov-19 19:34N 51°13' E 002°03'1717.1
2014-Nov-19 18:34N 51°03' E 001°41'3616.6
2014-Nov-19 16:25N 50°35' E 001°06'1516.9
2014-Nov-19 15:31N 50°30' E 000°44'1717.2
2014-Nov-19 14:32N 50°24' E 000°19'3815.9
2014-Nov-19 12:08N 50°34' W 000°39'916.1
2014-Nov-19 11:33N 50°38' W 000°52'1212.3
2014-Nov-19 10:33N 50°45' W 001°08'10 9.8
2014-Nov-19 09:33N 50°51' W 001°21'4 1.8
2014-Nov-19 07:19N 50°54' W 001°25'0 0.0
2014-Nov-19 04:04N 50°54' W 001°25'0 0.0
2014-Nov-19 03:28N 50°54' W 001°25'0 0.0
2014-Nov-19 02:25N 50°54' W 001°25'0 0.0
2014-Nov-19 00:28N 50°54' W 001°25'0 0.0
2014-Nov-18 23:31N 50°54' W 001°25'0 0.0
2014-Nov-18 21:25N 50°54' W 001°25'0 0.0
2014-Nov-18 17:31N 50°54' W 001°25'0 0.0
2014-Nov-18 15:16N 50°54' W 001°25'0 0.0
2014-Nov-18 14:07N 50°54' W 001°25'0 0.0
2014-Nov-18 13:31N 50°54' W 001°25'0 0.0
2014-Nov-18 12:31N 50°54' W 001°25'0 0.0
2014-Nov-18 11:25N 50°54' W 001°25'  

Dump ship's entire track history